createdAt,value
2019-03-24T00:00:04.083Z,8.80
2019-03-24T00:02:32.666Z,8.80
2019-03-24T00:05:01.159Z,8.80
2019-03-24T00:07:29.825Z,8.80
2019-03-24T00:09:58.321Z,8.80
2019-03-24T00:12:27.021Z,8.70
2019-03-24T00:14:55.664Z,8.80
2019-03-24T00:17:24.215Z,8.80
2019-03-24T00:19:54.561Z,8.80
2019-03-24T00:22:24.073Z,8.80
2019-03-24T00:24:52.627Z,8.70
2019-03-24T00:27:21.211Z,8.70
2019-03-24T00:29:51.353Z,8.70
2019-03-24T00:32:19.962Z,8.60
2019-03-24T00:34:48.445Z,8.50
2019-03-24T00:37:16.939Z,8.50
2019-03-24T00:39:45.519Z,8.50
2019-03-24T00:42:14.233Z,8.50
2019-03-24T00:44:42.839Z,8.50
2019-03-24T00:47:11.470Z,8.50
2019-03-24T00:49:39.952Z,8.50
2019-03-24T00:52:08.540Z,8.50
2019-03-24T00:54:37.129Z,8.40
2019-03-24T00:57:05.789Z,8.40
2019-03-24T00:59:34.349Z,8.40
2019-03-24T01:02:02.845Z,8.40
2019-03-24T01:04:31.429Z,8.40
2019-03-24T01:06:59.979Z,8.40
2019-03-24T01:09:28.647Z,8.40
2019-03-24T01:11:57.141Z,8.40
2019-03-24T01:14:25.645Z,8.40
2019-03-24T01:16:54.876Z,8.40
2019-03-24T01:19:23.512Z,8.40
2019-03-24T01:21:52.122Z,8.40
2019-03-24T01:24:20.752Z,8.30
2019-03-24T01:26:49.234Z,8.30
2019-03-24T01:29:17.912Z,8.30
2019-03-24T01:31:46.553Z,8.20
2019-03-24T01:34:15.228Z,8.20
2019-03-24T01:36:43.784Z,8.20
2019-03-24T01:39:12.365Z,8.20
2019-03-24T01:41:41.116Z,8.20
2019-03-24T01:44:09.689Z,8.10
2019-03-24T01:46:38.336Z,8.20
2019-03-24T01:49:07.155Z,8.10
2019-03-24T01:51:35.751Z,8.20
2019-03-24T01:54:04.474Z,8.10
2019-03-24T01:56:33.034Z,8.10
2019-03-24T01:59:01.627Z,8.10
2019-03-24T02:01:30.290Z,8.10
2019-03-24T02:03:58.933Z,8.00
2019-03-24T02:06:28.736Z,8.00
2019-03-24T02:08:57.373Z,8.00
2019-03-24T02:11:25.965Z,8.00
2019-03-24T02:13:54.583Z,8.00
2019-03-24T02:16:23.138Z,8.00
2019-03-24T02:18:51.847Z,8.00
2019-03-24T02:21:20.480Z,8.00
2019-03-24T02:23:49.076Z,7.90
2019-03-24T02:26:17.646Z,7.90
2019-03-24T02:28:46.276Z,7.80
2019-03-24T02:31:14.795Z,7.80
2019-03-24T02:33:43.434Z,7.80
2019-03-24T02:36:12.162Z,7.80
2019-03-24T02:38:40.694Z,7.80
2019-03-24T02:41:09.258Z,7.80
2019-03-24T02:43:37.826Z,7.80
2019-03-24T02:46:06.513Z,7.80
2019-03-24T02:48:35.203Z,7.80
2019-03-24T02:51:05.289Z,7.80
2019-03-24T02:53:33.842Z,7.70
2019-03-24T02:56:02.501Z,7.70
2019-03-24T02:58:31.145Z,7.70
2019-03-24T03:00:59.740Z,7.70
2019-03-24T03:03:28.294Z,7.70
2019-03-24T03:05:56.944Z,7.70
2019-03-24T03:08:25.551Z,7.60
2019-03-24T03:10:54.198Z,7.60
2019-03-24T03:13:22.810Z,7.60
2019-03-24T03:15:51.519Z,7.60
2019-03-24T03:18:20.152Z,7.60
2019-03-24T03:20:48.747Z,7.70
2019-03-24T03:23:17.375Z,7.70
2019-03-24T03:25:46.049Z,7.70
2019-03-24T03:28:14.647Z,7.60
2019-03-24T03:30:43.459Z,7.60
2019-03-24T03:33:12.200Z,7.60
2019-03-24T03:35:40.765Z,7.60
2019-03-24T03:38:09.433Z,7.60
2019-03-24T03:40:38.541Z,7.60
2019-03-24T03:43:07.124Z,7.60
2019-03-24T03:45:39.035Z,7.50
2019-03-24T03:48:06.203Z,7.60
2019-03-24T03:50:34.870Z,7.50
2019-03-24T03:53:03.512Z,7.60
2019-03-24T03:55:32.136Z,7.60
2019-03-24T03:58:00.648Z,7.50
2019-03-24T04:00:31.812Z,7.50
2019-03-24T04:03:00.764Z,7.50
2019-03-24T04:05:29.396Z,7.50
2019-03-24T04:07:57.966Z,7.50
2019-03-24T04:10:26.560Z,7.50
2019-03-24T04:12:55.224Z,7.50
2019-03-24T04:15:23.804Z,7.50
2019-03-24T04:17:52.377Z,7.50
2019-03-24T04:20:21.016Z,7.50
2019-03-24T04:22:49.667Z,7.40
2019-03-24T04:25:18.180Z,7.40
2019-03-24T04:27:46.770Z,7.40
2019-03-24T04:30:15.570Z,7.40
2019-03-24T04:32:44.209Z,7.40
2019-03-24T04:35:12.956Z,7.40
2019-03-24T04:37:41.522Z,7.40
2019-03-24T04:40:10.342Z,7.40
2019-03-24T04:42:38.944Z,7.40
2019-03-24T04:45:08.177Z,7.30
2019-03-24T04:47:36.849Z,7.30
2019-03-24T04:50:09.160Z,7.30
2019-03-24T04:52:37.870Z,7.30
2019-03-24T04:55:07.386Z,7.30
2019-03-24T04:57:35.992Z,7.20
2019-03-24T05:00:06.629Z,7.30
2019-03-24T05:02:35.175Z,7.20
2019-03-24T05:05:04.820Z,7.20
2019-03-24T05:07:33.515Z,7.20
2019-03-24T05:10:03.405Z,7.20
2019-03-24T05:12:31.994Z,7.20
2019-03-24T05:15:00.503Z,7.20
2019-03-24T05:17:29.089Z,7.20
2019-03-24T05:19:57.709Z,7.20
2019-03-24T05:22:26.353Z,7.10
2019-03-24T05:24:54.870Z,7.10
2019-03-24T05:27:23.427Z,7.10
2019-03-24T05:29:52.024Z,7.20
2019-03-24T05:32:20.695Z,7.20
2019-03-24T05:34:49.191Z,7.20
2019-03-24T05:37:18.552Z,7.20
2019-03-24T05:39:47.109Z,7.20
2019-03-24T05:42:15.768Z,7.10
2019-03-24T05:44:44.248Z,7.10
2019-03-24T05:47:12.860Z,7.10
2019-03-24T05:49:41.579Z,7.10
2019-03-24T05:52:10.294Z,7.10
2019-03-24T05:54:38.941Z,7.10
2019-03-24T05:57:07.438Z,7.20
2019-03-24T05:59:35.993Z,7.20
2019-03-24T06:02:04.652Z,7.20
2019-03-24T06:04:33.228Z,7.20
2019-03-24T06:07:01.831Z,7.20
2019-03-24T06:09:30.317Z,7.20
2019-03-24T06:11:58.879Z,7.30
2019-03-24T06:14:27.478Z,7.30
2019-03-24T06:16:55.978Z,7.30
2019-03-24T06:19:24.513Z,7.30
2019-03-24T06:21:53.127Z,7.30
2019-03-24T06:24:21.756Z,7.40
2019-03-24T06:26:50.348Z,7.50
2019-03-24T06:29:18.932Z,7.60
2019-03-24T06:31:47.575Z,7.70
2019-03-24T06:34:16.232Z,7.80
2019-03-24T06:36:44.816Z,7.80
2019-03-24T06:39:13.328Z,7.90
2019-03-24T06:41:41.827Z,7.90
2019-03-24T06:44:10.495Z,7.90
2019-03-24T06:46:38.986Z,8.00
2019-03-24T06:49:07.495Z,8.10
2019-03-24T06:51:36.073Z,8.10
2019-03-24T06:54:04.696Z,8.20
2019-03-24T06:56:33.273Z,8.30
2019-03-24T06:59:01.766Z,8.40
2019-03-24T07:01:30.333Z,8.50
2019-03-24T07:03:58.908Z,8.60
2019-03-24T07:06:27.465Z,8.70
2019-03-24T07:08:56.043Z,8.80
2019-03-24T07:11:24.551Z,8.90
2019-03-24T07:13:53.121Z,9.10
2019-03-24T07:16:21.789Z,9.20
2019-03-24T07:18:50.412Z,9.20
2019-03-24T07:21:19.155Z,9.30
2019-03-24T07:23:47.716Z,9.40
2019-03-24T07:26:16.275Z,9.50
2019-03-24T07:28:44.855Z,9.60
2019-03-24T07:31:13.472Z,9.70
2019-03-24T07:33:41.991Z,10.00
2019-03-24T07:36:11.234Z,10.10
2019-03-24T07:38:39.869Z,10.30
2019-03-24T07:41:08.533Z,10.50
2019-03-24T07:43:37.149Z,10.70
2019-03-24T07:46:05.893Z,10.90
2019-03-24T07:48:34.743Z,11.10
2019-03-24T07:51:17.279Z,11.20
2019-03-24T07:53:45.817Z,11.50
2019-03-24T07:56:14.383Z,11.80
2019-03-24T07:58:42.974Z,11.90
2019-03-24T08:01:11.529Z,12.10
2019-03-24T08:03:40.239Z,12.10
2019-03-24T08:06:08.833Z,12.30
2019-03-24T08:08:44.236Z,12.60
2019-03-24T08:11:07.582Z,12.90
2019-03-24T08:13:36.215Z,13.10
2019-03-24T08:16:04.960Z,13.20
2019-03-24T08:18:33.467Z,13.50
2019-03-24T08:21:02.224Z,13.80
2019-03-24T08:23:30.811Z,14.20
2019-03-24T08:25:59.580Z,14.40
2019-03-24T08:28:28.426Z,14.60
2019-03-24T08:30:57.071Z,14.70
2019-03-24T08:33:25.773Z,14.90
2019-03-24T08:35:54.402Z,15.10
2019-03-24T08:38:23.028Z,15.30
2019-03-24T08:40:51.673Z,15.60
2019-03-24T08:43:20.385Z,15.80
2019-03-24T08:45:49.027Z,16.00
2019-03-24T08:48:17.606Z,16.00
2019-03-24T08:50:46.105Z,16.00
2019-03-24T08:53:14.708Z,16.10
2019-03-24T08:55:43.327Z,16.20
2019-03-24T08:58:11.959Z,16.50
2019-03-24T09:00:40.691Z,16.60
2019-03-24T09:03:09.263Z,16.80
2019-03-24T09:05:37.907Z,16.90
2019-03-24T09:08:06.477Z,17.20
2019-03-24T09:10:35.186Z,17.40
2019-03-24T09:13:04.838Z,17.70
2019-03-24T09:15:33.481Z,18.00
2019-03-24T09:18:02.147Z,18.40
2019-03-24T09:20:41.003Z,18.60
2019-03-24T09:23:01.022Z,18.50
2019-03-24T09:25:29.675Z,18.80
2019-03-24T09:27:58.335Z,18.80
2019-03-24T09:30:28.888Z,18.80
2019-03-24T09:32:57.748Z,18.80
2019-03-24T09:35:26.478Z,18.90
2019-03-24T09:37:55.197Z,19.10
2019-03-24T09:40:29.136Z,19.20
2019-03-24T09:42:59.281Z,19.20
2019-03-24T09:45:28.396Z,19.70
2019-03-24T09:47:57.034Z,19.90
2019-03-24T09:50:25.661Z,20.00
2019-03-24T09:52:54.486Z,19.70
2019-03-24T09:55:23.227Z,19.60
2019-03-24T09:57:51.808Z,19.00
2019-03-24T10:00:20.433Z,18.60
2019-03-24T10:02:49.002Z,18.80
2019-03-24T10:05:17.724Z,19.60
2019-03-24T10:07:46.296Z,20.20
2019-03-24T10:10:15.067Z,20.30
2019-03-24T10:12:43.641Z,19.90
2019-03-24T10:15:13.825Z,20.20
2019-03-24T10:17:42.572Z,20.50
2019-03-24T10:20:11.460Z,20.50
2019-03-24T10:22:40.044Z,19.80
2019-03-24T10:25:08.683Z,19.50
2019-03-24T10:27:37.257Z,19.50
2019-03-24T10:30:08.409Z,19.60
2019-03-24T10:32:36.981Z,20.70
2019-03-24T10:35:07.017Z,21.20
2019-03-24T10:37:35.615Z,21.20
2019-03-24T10:40:07.818Z,21.40
2019-03-24T10:42:36.588Z,21.90
2019-03-24T10:45:06.306Z,22.20
2019-03-24T10:47:35.074Z,22.30
2019-03-24T10:50:05.367Z,21.80
2019-03-24T10:52:33.964Z,22.10
2019-03-24T10:55:02.672Z,22.50
2019-03-24T10:57:31.234Z,22.70
2019-03-24T10:59:59.899Z,22.60
2019-03-24T11:02:28.470Z,22.70
2019-03-24T11:04:58.233Z,22.60
2019-03-24T11:07:26.913Z,22.20
2019-03-24T11:09:55.547Z,21.90
2019-03-24T11:12:24.262Z,22.50
2019-03-24T11:14:52.887Z,23.10
2019-03-24T11:17:21.448Z,23.70
2019-03-24T11:19:49.963Z,24.00
2019-03-24T11:22:18.456Z,23.80
2019-03-24T11:24:47.082Z,22.80
2019-03-24T11:27:15.705Z,22.90
2019-03-24T11:29:44.262Z,22.80
2019-03-24T11:32:12.984Z,22.70
2019-03-24T11:34:41.468Z,22.70
2019-03-24T11:37:10.124Z,23.10
2019-03-24T11:39:38.652Z,23.20
2019-03-24T11:42:07.298Z,23.60
2019-03-24T11:44:35.872Z,23.20
2019-03-24T11:47:04.512Z,22.30
2019-03-24T11:49:33.090Z,21.60
2019-03-24T11:52:01.736Z,20.90
2019-03-24T11:54:30.312Z,20.40
2019-03-24T11:56:59.023Z,19.70
2019-03-24T11:59:27.646Z,19.10
2019-03-24T12:01:56.227Z,18.90
2019-03-24T12:04:24.877Z,18.50
2019-03-24T12:06:53.528Z,18.30
2019-03-24T12:09:22.091Z,17.90
2019-03-24T12:11:50.721Z,17.60
2019-03-24T12:14:20.289Z,17.30
2019-03-24T12:16:48.845Z,17.20
2019-03-24T12:19:17.373Z,17.20
2019-03-24T12:21:47.461Z,17.30
2019-03-24T12:24:16.090Z,17.40
2019-03-24T12:26:44.679Z,17.50
2019-03-24T12:29:13.308Z,17.50
2019-03-24T12:31:41.910Z,17.40
2019-03-24T12:34:10.481Z,17.30
2019-03-24T12:36:39.124Z,17.10
2019-03-24T12:39:07.948Z,17.00
2019-03-24T12:41:36.509Z,16.90
2019-03-24T12:44:05.159Z,16.90
2019-03-24T12:46:33.724Z,16.80
2019-03-24T12:49:02.280Z,16.90
2019-03-24T12:51:30.877Z,17.00
2019-03-24T12:53:59.448Z,17.20
2019-03-24T12:56:28.050Z,17.60
2019-03-24T12:58:56.699Z,17.70
2019-03-24T13:01:25.339Z,17.90
2019-03-24T13:03:54.064Z,18.30
2019-03-24T13:06:22.644Z,18.20
2019-03-24T13:08:51.180Z,18.00
2019-03-24T13:11:19.736Z,17.80
2019-03-24T13:13:48.342Z,17.60
2019-03-24T13:16:16.989Z,17.60
2019-03-24T13:18:45.637Z,17.40
2019-03-24T13:21:14.302Z,17.50
2019-03-24T13:23:42.891Z,17.50
2019-03-24T13:26:11.465Z,17.60
2019-03-24T13:28:41.116Z,17.80
2019-03-24T13:31:09.746Z,18.20
2019-03-24T13:33:38.256Z,19.30
2019-03-24T13:36:12.040Z,19.90
2019-03-24T13:38:40.622Z,20.30
2019-03-24T13:41:09.253Z,20.70
2019-03-24T13:43:37.825Z,20.40
2019-03-24T13:46:07.310Z,20.60
2019-03-24T13:48:35.979Z,20.90
2019-03-24T13:51:04.715Z,20.70
2019-03-24T13:53:33.356Z,20.90
2019-03-24T13:56:02.066Z,20.40
2019-03-24T13:58:30.655Z,19.80
2019-03-24T14:00:59.287Z,19.10
2019-03-24T14:03:30.102Z,18.70
2019-03-24T14:05:58.735Z,18.40
2019-03-24T14:08:27.224Z,17.90
2019-03-24T14:10:55.836Z,17.70
2019-03-24T14:13:24.494Z,17.10
2019-03-24T14:15:53.230Z,16.60
2019-03-24T14:18:21.857Z,16.70
2019-03-24T14:20:50.433Z,16.60
2019-03-24T14:23:19.227Z,16.30
2019-03-24T14:25:47.888Z,16.20
2019-03-24T14:28:16.641Z,16.10
2019-03-24T14:30:46.691Z,16.10
2019-03-24T14:33:15.506Z,16.20
2019-03-24T14:35:44.547Z,16.30
2019-03-24T14:38:13.258Z,16.50
2019-03-24T14:40:41.963Z,16.50
2019-03-24T14:43:12.580Z,16.50
2019-03-24T14:45:41.054Z,16.50
2019-03-24T14:48:09.779Z,16.40
2019-03-24T14:50:38.509Z,16.20
2019-03-24T14:53:07.082Z,16.20
2019-03-24T14:55:35.752Z,16.00
2019-03-24T14:58:04.770Z,16.10
2019-03-24T15:00:38.151Z,16.20
2019-03-24T15:03:07.206Z,16.20
2019-03-24T15:05:36.051Z,16.20
2019-03-24T15:08:05.190Z,16.10
2019-03-24T15:10:34.060Z,16.10
2019-03-24T15:13:02.772Z,16.00
2019-03-24T15:15:31.340Z,15.70
2019-03-24T15:17:59.944Z,15.70
2019-03-24T15:20:28.507Z,15.60
2019-03-24T15:22:57.176Z,15.60
2019-03-24T15:25:26.154Z,15.60
2019-03-24T15:27:54.821Z,15.60
2019-03-24T15:30:23.480Z,15.50
2019-03-24T15:32:53.515Z,15.30
2019-03-24T15:35:22.377Z,15.30
2019-03-24T15:37:50.942Z,15.30
2019-03-24T15:40:19.659Z,15.40
2019-03-24T15:42:48.320Z,15.40
2019-03-24T15:45:17.227Z,15.40
2019-03-24T15:47:45.828Z,15.10
2019-03-24T15:50:14.884Z,15.10
2019-03-24T15:52:43.441Z,15.10
2019-03-24T15:55:12.261Z,15.10
2019-03-24T15:57:40.893Z,15.20
2019-03-24T16:00:10.900Z,15.20
2019-03-24T16:02:39.716Z,15.10
2019-03-24T16:05:08.531Z,15.00
2019-03-24T16:07:37.320Z,15.00
2019-03-24T16:10:07.272Z,15.00
2019-03-24T16:12:36.166Z,14.90
2019-03-24T16:15:07.875Z,14.90
2019-03-24T16:17:37.049Z,14.70
2019-03-24T16:20:09.515Z,14.50
2019-03-24T16:22:38.079Z,14.40
2019-03-24T16:25:08.151Z,14.30
2019-03-24T16:27:36.865Z,14.30
2019-03-24T16:30:10.359Z,14.10
2019-03-24T16:32:38.943Z,14.00
2019-03-24T16:35:07.849Z,14.00
2019-03-24T16:37:36.553Z,14.10
2019-03-24T16:40:09.659Z,14.10
2019-03-24T16:42:38.229Z,14.00
2019-03-24T16:45:07.275Z,14.00
2019-03-24T16:47:35.851Z,14.10
2019-03-24T16:50:06.760Z,14.20
2019-03-24T16:52:35.344Z,14.20
2019-03-24T16:55:06.172Z,14.10
2019-03-24T16:57:34.820Z,14.10
2019-03-24T17:00:04.823Z,14.00
2019-03-24T17:02:34.493Z,14.00
2019-03-24T17:05:03.902Z,13.90
2019-03-24T17:07:32.569Z,13.90
2019-03-24T17:10:01.090Z,13.80
2019-03-24T17:12:31.449Z,13.80
2019-03-24T17:15:21.079Z,13.80
2019-03-24T17:17:49.713Z,13.60
2019-03-24T17:20:18.292Z,13.50
2019-03-24T17:22:46.921Z,13.50
2019-03-24T17:25:15.658Z,13.60
2019-03-24T17:27:45.738Z,13.60
2019-03-24T17:30:14.589Z,13.40
2019-03-24T17:32:44.865Z,13.40
2019-03-24T17:35:13.756Z,13.20
2019-03-24T17:37:42.466Z,13.20
2019-03-24T17:40:12.585Z,13.20
2019-03-24T17:42:41.319Z,13.20
2019-03-24T17:45:11.345Z,13.30
2019-03-24T17:47:40.255Z,13.20
2019-03-24T17:50:12.091Z,12.90
2019-03-24T17:52:40.792Z,12.90
2019-03-24T17:55:09.534Z,12.80
2019-03-24T17:57:38.252Z,12.80
2019-03-24T18:00:09.820Z,12.80
2019-03-24T18:02:37.617Z,12.80
2019-03-24T18:05:07.843Z,12.70
2019-03-24T18:07:37.705Z,12.60
2019-03-24T18:10:08.495Z,12.40
2019-03-24T18:12:38.847Z,12.30
2019-03-24T18:15:10.091Z,12.10
2019-03-24T18:17:38.677Z,12.10
2019-03-24T18:20:08.792Z,12.00
2019-03-24T18:22:37.442Z,11.90
2019-03-24T18:25:07.951Z,11.80
2019-03-24T18:27:36.449Z,11.70
2019-03-24T18:30:07.375Z,11.50
2019-03-24T18:32:36.042Z,11.50
2019-03-24T18:35:07.218Z,11.40
2019-03-24T18:37:35.778Z,11.30
2019-03-24T18:40:07.452Z,11.20
2019-03-24T18:42:35.284Z,11.20
2019-03-24T18:45:05.609Z,11.20
2019-03-24T18:47:34.133Z,11.10
2019-03-24T18:50:02.629Z,11.00
2019-03-24T18:52:31.206Z,10.80
2019-03-24T18:54:59.769Z,10.80
2019-03-24T18:57:28.347Z,10.70
2019-03-24T18:59:57.050Z,10.70
2019-03-24T19:02:25.677Z,10.60
2019-03-24T19:04:54.380Z,10.60
2019-03-24T19:07:23.037Z,10.50
2019-03-24T19:09:51.614Z,10.50
2019-03-24T19:12:20.221Z,10.40
2019-03-24T19:14:48.756Z,10.30
2019-03-24T19:17:18.830Z,10.30
2019-03-24T19:19:47.429Z,10.20
2019-03-24T19:22:16.056Z,10.20
2019-03-24T19:24:44.645Z,10.20
2019-03-24T19:27:13.283Z,10.10
2019-03-24T19:29:41.957Z,10.10
2019-03-24T19:32:10.609Z,10.00
2019-03-24T19:34:39.251Z,10.00
2019-03-24T19:37:07.989Z,9.90
2019-03-24T19:39:36.894Z,9.90
2019-03-24T19:42:05.599Z,9.90
2019-03-24T19:44:34.190Z,9.90
2019-03-24T19:47:02.838Z,9.90
2019-03-24T19:49:31.435Z,9.90
2019-03-24T19:52:00.143Z,9.90
2019-03-24T19:54:28.702Z,9.80
2019-03-24T19:56:57.356Z,9.80
2019-03-24T19:59:26.888Z,9.70
2019-03-24T20:01:55.493Z,9.60
2019-03-24T20:04:23.985Z,9.60
2019-03-24T20:06:52.558Z,9.60
2019-03-24T20:09:21.138Z,9.60
2019-03-24T20:11:49.714Z,9.50
2019-03-24T20:14:18.521Z,9.50
2019-03-24T20:16:47.101Z,9.40
2019-03-24T20:19:15.718Z,9.40
2019-03-24T20:21:45.249Z,9.40
2019-03-24T20:24:13.836Z,9.40
2019-03-24T20:26:42.366Z,9.40
2019-03-24T20:29:11.013Z,9.40
2019-03-24T20:31:39.594Z,9.30
2019-03-24T20:34:08.142Z,9.30
2019-03-24T20:36:36.759Z,9.30
2019-03-24T20:39:08.458Z,9.30
2019-03-24T20:41:36.350Z,9.30
2019-03-24T20:44:04.991Z,9.30
2019-03-24T20:46:33.679Z,9.20
2019-03-24T20:49:02.235Z,9.20
2019-03-24T20:51:30.960Z,9.20
2019-03-24T20:53:59.528Z,9.20
2019-03-24T20:56:28.095Z,9.20
2019-03-24T20:58:56.711Z,9.20
2019-03-24T21:01:25.950Z,9.20
2019-03-24T21:03:54.549Z,9.10
2019-03-24T21:06:23.116Z,9.10
2019-03-24T21:08:51.683Z,9.10
2019-03-24T21:11:20.408Z,9.00
2019-03-24T21:13:49.044Z,8.90
2019-03-24T21:16:17.714Z,8.90
2019-03-24T21:18:46.344Z,8.80
2019-03-24T21:21:14.909Z,8.80
2019-03-24T21:23:46.182Z,8.70
2019-03-24T21:26:14.780Z,8.60
2019-03-24T21:28:43.304Z,8.60
2019-03-24T21:31:11.856Z,8.50
2019-03-24T21:33:40.485Z,8.50
2019-03-24T21:36:09.231Z,8.40
2019-03-24T21:38:37.800Z,8.30
2019-03-24T21:41:06.844Z,8.20
2019-03-24T21:43:35.495Z,8.20
2019-03-24T21:46:04.177Z,8.10
2019-03-24T21:48:32.781Z,8.10
2019-03-24T21:51:01.387Z,8.10
2019-03-24T21:53:40.089Z,8.00
2019-03-24T21:56:00.124Z,8.00
2019-03-24T21:58:28.762Z,8.00
2019-03-24T22:00:57.270Z,7.90
2019-03-24T22:03:25.836Z,7.90
2019-03-24T22:05:54.441Z,7.80
2019-03-24T22:08:23.002Z,7.80
2019-03-24T22:10:51.520Z,7.80
2019-03-24T22:13:20.032Z,7.80
2019-03-24T22:15:48.648Z,7.70
2019-03-24T22:18:17.241Z,7.70
2019-03-24T22:20:49.177Z,7.70
2019-03-24T22:23:15.994Z,7.70
2019-03-24T22:25:44.571Z,7.70
2019-03-24T22:28:13.144Z,7.60
2019-03-24T22:30:41.720Z,7.60
2019-03-24T22:33:10.211Z,7.60
2019-03-24T22:35:38.771Z,7.60
2019-03-24T22:38:07.417Z,7.60
2019-03-24T22:40:35.954Z,7.70
2019-03-24T22:43:04.768Z,7.70
2019-03-24T22:45:33.319Z,7.80
2019-03-24T22:48:01.875Z,7.80
2019-03-24T22:50:30.618Z,7.80
2019-03-24T22:52:59.138Z,7.80
2019-03-24T22:55:27.654Z,7.90
2019-03-24T22:57:56.352Z,7.80
2019-03-24T23:00:42.456Z,7.80
2019-03-24T23:03:11.589Z,7.70
2019-03-24T23:05:40.209Z,7.60
2019-03-24T23:08:08.731Z,7.50
2019-03-24T23:10:37.494Z,7.40
2019-03-24T23:13:06.349Z,7.40
2019-03-24T23:15:34.908Z,7.40
2019-03-24T23:18:03.679Z,7.40
2019-03-24T23:20:32.304Z,7.40
2019-03-24T23:23:00.878Z,7.30
2019-03-24T23:25:29.453Z,7.20
2019-03-24T23:27:58.092Z,7.20
2019-03-24T23:30:26.804Z,7.10
2019-03-24T23:32:55.373Z,7.10
2019-03-24T23:35:23.869Z,7.10
2019-03-24T23:37:52.450Z,7.10
2019-03-24T23:40:21.070Z,7.00
2019-03-24T23:42:49.761Z,7.00
2019-03-24T23:45:18.407Z,7.00
2019-03-24T23:47:46.949Z,6.90
2019-03-24T23:50:16.279Z,6.90
2019-03-24T23:52:44.843Z,6.80
2019-03-24T23:55:13.533Z,6.70
2019-03-24T23:57:42.122Z,6.60
